createdAt,value
2023-05-24T00:00:17.702Z,102330.75
2023-05-24T00:01:49.513Z,102334.25
2023-05-24T00:03:22.075Z,102327.25
2023-05-24T00:04:54.121Z,102328.94
2023-05-24T00:06:28.689Z,102332.41
2023-05-24T00:08:00.544Z,102325.31
2023-05-24T00:09:32.838Z,102333.19
2023-05-24T00:11:04.661Z,102338.38
2023-05-24T00:12:36.474Z,102334.84
2023-05-24T00:14:08.311Z,102335.72
2023-05-24T00:15:40.147Z,102331.34
2023-05-24T00:17:13.067Z,102334.78
2023-05-24T00:18:47.276Z,102332.13
2023-05-24T00:20:21.241Z,102327.75
2023-05-24T00:21:53.243Z,102329.50
2023-05-24T00:23:25.815Z,102324.25
2023-05-24T00:24:57.657Z,102324.22
2023-05-24T00:26:29.534Z,102319.84
2023-05-24T00:28:01.495Z,102318.94
2023-05-24T00:29:33.462Z,102321.56
2023-05-24T00:31:05.424Z,102321.53
2023-05-24T00:32:37.305Z,102318.88
2023-05-24T00:34:09.237Z,102320.56
2023-05-24T00:35:41.079Z,102320.56
2023-05-24T00:37:13.230Z,102320.47
2023-05-24T00:38:45.033Z,102313.50
2023-05-24T00:40:16.923Z,102317.84
2023-05-24T00:41:48.735Z,102308.16
2023-05-24T00:43:20.993Z,102308.13
2023-05-24T00:44:53.097Z,102305.53
2023-05-24T00:46:29.205Z,102309.03
2023-05-24T00:48:01.126Z,102305.50
2023-05-24T00:49:33.595Z,102315.03
2023-05-24T00:51:05.643Z,102301.94
2023-05-24T00:52:37.511Z,102304.56
2023-05-24T00:54:09.708Z,102301.03
2023-05-24T00:55:41.661Z,102309.72
2023-05-24T00:57:16.496Z,102313.22
2023-05-24T00:58:50.621Z,102313.16
2023-05-24T01:00:28.579Z,102311.41
2023-05-24T01:02:00.615Z,102311.38
2023-05-24T01:03:32.863Z,102309.59
2023-05-24T01:05:06.144Z,102305.16
2023-05-24T01:07:04.448Z,102301.66
2023-05-24T01:08:42.923Z,102306.91
2023-05-24T01:10:21.132Z,102299.91
2023-05-24T01:12:10.496Z,102301.59
2023-05-24T01:13:47.871Z,102305.91
2023-05-24T01:15:36.119Z,102297.16
2023-05-24T01:17:21.929Z,102300.59
2023-05-24T01:18:57.915Z,102301.41
2023-05-24T01:20:33.171Z,102293.56
2023-05-24T01:22:09.469Z,102297.91
2023-05-24T01:23:53.397Z,102295.19
2023-05-24T01:25:25.214Z,102301.28
2023-05-24T01:27:09.858Z,102303.03
2023-05-24T01:28:43.526Z,102296.03
2023-05-24T01:30:15.912Z,102295.19
2023-05-24T01:31:47.828Z,102302.13
2023-05-24T01:33:19.890Z,102298.66
2023-05-24T01:34:51.709Z,102298.66
2023-05-24T01:36:23.613Z,102301.22
2023-05-24T01:37:55.631Z,102298.59
2023-05-24T01:39:28.290Z,102283.72
2023-05-24T01:41:01.896Z,102289.84
2023-05-24T01:42:42.222Z,102291.56
2023-05-24T01:44:21.188Z,102277.59
2023-05-24T01:46:12.000Z,102281.13
2023-05-24T01:47:43.793Z,102292.41
2023-05-24T01:49:21.682Z,102287.19
2023-05-24T01:50:54.059Z,102285.41
2023-05-24T01:52:28.002Z,102280.19
2023-05-24T01:54:00.431Z,102290.66
2023-05-24T01:55:32.977Z,102283.63
2023-05-24T01:57:08.118Z,102286.22
2023-05-24T01:58:44.344Z,102289.59
2023-05-24T02:00:17.069Z,102281.75
2023-05-24T02:01:50.427Z,102285.97
2023-05-24T02:03:22.559Z,102276.38
2023-05-24T02:04:54.403Z,102278.16
2023-05-24T02:06:26.340Z,102286.84
2023-05-24T02:07:58.220Z,102275.50
2023-05-24T02:09:30.064Z,102282.44
2023-05-24T02:11:02.923Z,102279.69
2023-05-24T02:12:34.771Z,102280.50
2023-05-24T02:14:06.646Z,102276.06
2023-05-24T02:15:38.551Z,102280.28
2023-05-24T02:17:10.488Z,102282.16
2023-05-24T02:18:45.054Z,102278.63
2023-05-24T02:20:17.647Z,102283.88
2023-05-24T02:21:49.488Z,102286.34
2023-05-24T02:23:21.368Z,102283.78
2023-05-24T02:24:53.769Z,102285.44
2023-05-24T02:26:26.384Z,102283.66
2023-05-24T02:27:58.641Z,102285.41
2023-05-24T02:29:30.884Z,102290.59
2023-05-24T02:31:02.886Z,102280.13
2023-05-24T02:32:37.598Z,102286.22
2023-05-24T02:34:09.488Z,102280.97
2023-05-24T02:35:41.809Z,102277.47
2023-05-24T02:37:16.902Z,102282.63
2023-05-24T02:38:48.723Z,102286.09
2023-05-24T02:40:20.604Z,102289.56
2023-05-24T02:41:52.892Z,102291.28
2023-05-24T02:43:24.882Z,102296.50
2023-05-24T02:44:56.803Z,102291.28
2023-05-24T02:46:28.647Z,102287.78
2023-05-24T02:48:00.560Z,102299.00
2023-05-24T02:49:32.370Z,102292.00
2023-05-24T02:51:04.205Z,102290.19
2023-05-24T02:52:36.561Z,102287.56
2023-05-24T02:54:08.968Z,102291.81
2023-05-24T02:55:40.863Z,102290.00
2023-05-24T02:57:13.065Z,102289.09
2023-05-24T02:58:48.414Z,102296.03
2023-05-24T03:00:20.388Z,102297.75
2023-05-24T03:01:52.396Z,102300.28
2023-05-24T03:03:24.370Z,102303.66
2023-05-24T03:04:56.735Z,102292.25
2023-05-24T03:06:28.717Z,102293.09
2023-05-24T03:08:01.559Z,102299.09
2023-05-24T03:09:33.802Z,102294.69
2023-05-24T03:11:05.943Z,102294.63
2023-05-24T03:12:39.494Z,102292.00
2023-05-24T03:14:12.055Z,102294.56
2023-05-24T03:15:46.893Z,102300.69
2023-05-24T03:17:18.880Z,102298.09
2023-05-24T03:18:51.218Z,102302.41
2023-05-24T03:20:24.083Z,102292.75
2023-05-24T03:21:56.667Z,102297.06
2023-05-24T03:23:29.237Z,102293.53
2023-05-24T03:25:01.604Z,102292.59
2023-05-24T03:26:33.598Z,102296.94
2023-05-24T03:28:05.459Z,102295.22
2023-05-24T03:29:37.806Z,102295.22
2023-05-24T03:31:09.860Z,102295.19
2023-05-24T03:32:42.471Z,102291.69
2023-05-24T03:34:14.454Z,102292.53
2023-05-24T03:35:46.928Z,102298.59
2023-05-24T03:37:19.747Z,102295.13
2023-05-24T03:38:51.737Z,102295.06
2023-05-24T03:40:26.119Z,102292.41
2023-05-24T03:42:01.257Z,102293.22
2023-05-24T03:43:33.135Z,102301.94
2023-05-24T03:45:08.158Z,102298.41
2023-05-24T03:46:40.236Z,102304.47
2023-05-24T03:48:12.380Z,102308.84
2023-05-24T03:49:44.229Z,102305.31
2023-05-24T03:51:16.100Z,102308.00
2023-05-24T03:52:48.418Z,102308.03
2023-05-24T03:54:20.320Z,102305.34
2023-05-24T03:55:52.335Z,102302.78
2023-05-24T03:57:24.251Z,102304.44
2023-05-24T03:59:00.929Z,102307.03
2023-05-24T04:00:32.806Z,102308.81
2023-05-24T04:02:04.790Z,102310.53
2023-05-24T04:03:36.719Z,102307.06
2023-05-24T04:05:10.433Z,102304.44
2023-05-24T04:06:43.441Z,102300.13
2023-05-24T04:08:15.304Z,102308.00
2023-05-24T04:09:47.195Z,102301.94
2023-05-24T04:11:19.033Z,102301.94
2023-05-24T04:12:50.995Z,102299.25
2023-05-24T04:14:22.865Z,102298.41
2023-05-24T04:15:55.252Z,102301.00
2023-05-24T04:17:27.890Z,102299.25
2023-05-24T04:19:01.374Z,102300.16
2023-05-24T04:20:33.889Z,102296.63
2023-05-24T04:22:05.762Z,102301.81
2023-05-24T04:23:37.660Z,102300.09
2023-05-24T04:25:10.353Z,102302.78
2023-05-24T04:26:42.264Z,102300.16
2023-05-24T04:28:15.549Z,102304.50
2023-05-24T04:29:50.112Z,102307.09
2023-05-24T04:31:22.092Z,102301.97
2023-05-24T04:32:54.129Z,102307.22
2023-05-24T04:34:26.171Z,102306.25
2023-05-24T04:36:01.340Z,102305.44
2023-05-24T04:37:33.436Z,102304.59
2023-05-24T04:39:05.941Z,102305.38
2023-05-24T04:40:37.867Z,102305.50
2023-05-24T04:42:09.813Z,102305.53
2023-05-24T04:43:41.643Z,102305.56
2023-05-24T04:45:13.630Z,102309.97
2023-05-24T04:46:45.779Z,102313.41
2023-05-24T04:48:17.947Z,102313.44
2023-05-24T04:49:49.980Z,102308.22
2023-05-24T04:51:22.489Z,102315.19
2023-05-24T04:52:54.339Z,102311.72
2023-05-24T04:54:26.317Z,102310.88
2023-05-24T04:55:58.185Z,102315.31
2023-05-24T04:57:30.244Z,102312.69
2023-05-24T04:59:02.376Z,102317.09
2023-05-24T05:00:34.233Z,102314.50
2023-05-24T05:02:06.126Z,102317.16
2023-05-24T05:03:38.236Z,102325.91
2023-05-24T05:05:10.256Z,102317.28
2023-05-24T05:06:44.865Z,102314.63
2023-05-24T05:08:16.773Z,102318.19
2023-05-24T05:09:48.525Z,102321.72
2023-05-24T05:11:20.920Z,102318.28
2023-05-24T05:12:52.770Z,102311.41
2023-05-24T05:14:24.658Z,102319.34
2023-05-24T05:15:56.521Z,102314.25
2023-05-24T05:17:28.468Z,102323.88
2023-05-24T05:19:01.557Z,102322.16
2023-05-24T05:20:33.472Z,102323.13
2023-05-24T05:22:05.673Z,102321.38
2023-05-24T05:23:39.963Z,102326.69
2023-05-24T05:25:11.880Z,102322.41
2023-05-24T05:26:43.752Z,102329.50
2023-05-24T05:28:15.777Z,102327.91
2023-05-24T05:29:47.723Z,102332.41
2023-05-24T05:31:19.600Z,102330.78
2023-05-24T05:32:51.550Z,102327.41
2023-05-24T05:34:23.471Z,102324.09
2023-05-24T05:35:55.249Z,102324.25
2023-05-24T05:37:27.148Z,102331.34
2023-05-24T05:38:58.951Z,102330.53
2023-05-24T05:40:30.888Z,102321.00
2023-05-24T05:42:03.050Z,102331.56
2023-05-24T05:43:34.955Z,102329.94
2023-05-24T05:45:07.179Z,102322.16
2023-05-24T05:46:39.505Z,102319.69
2023-05-24T05:48:11.455Z,102325.00
2023-05-24T05:49:43.377Z,102321.44
2023-05-24T05:51:15.190Z,102317.13
2023-05-24T05:52:47.223Z,102325.94
2023-05-24T05:54:19.065Z,102323.38
2023-05-24T05:55:51.090Z,102329.53
2023-05-24T05:57:24.606Z,102334.69
2023-05-24T05:58:56.596Z,102325.16
2023-05-24T06:00:28.488Z,102329.53
2023-05-24T06:02:00.338Z,102329.59
2023-05-24T06:03:32.251Z,102329.66
2023-05-24T06:05:04.313Z,102332.34
2023-05-24T06:06:36.197Z,102334.19
2023-05-24T06:08:08.088Z,102327.25
2023-05-24T06:09:39.905Z,102328.72
2023-05-24T06:11:11.765Z,102330.31
2023-05-24T06:12:43.654Z,102331.34
2023-05-24T06:14:20.052Z,102322.78
2023-05-24T06:15:53.040Z,102331.50
2023-05-24T06:17:25.008Z,102328.00
2023-05-24T06:19:05.397Z,102326.31
2023-05-24T06:20:38.232Z,102326.31
2023-05-24T06:22:10.343Z,102331.66
2023-05-24T06:23:43.167Z,102329.28
2023-05-24T06:25:15.737Z,102326.78
2023-05-24T06:26:48.423Z,102335.75
2023-05-24T06:28:20.564Z,102326.47
2023-05-24T06:29:52.445Z,102330.22
2023-05-24T06:31:24.378Z,102331.09
2023-05-24T06:32:56.643Z,102326.88
2023-05-24T06:34:30.016Z,102331.41
2023-05-24T06:36:01.960Z,102330.50
2023-05-24T06:37:33.866Z,102331.44
2023-05-24T06:39:05.758Z,102329.69
2023-05-24T06:40:37.618Z,102329.69
2023-05-24T06:42:09.546Z,102334.94
2023-05-24T06:43:41.845Z,102330.50
2023-05-24T06:45:13.993Z,102335.81
2023-05-24T06:46:46.006Z,102340.97
2023-05-24T06:48:17.903Z,102348.72
2023-05-24T06:49:51.346Z,102355.72
2023-05-24T06:51:23.215Z,102356.63
2023-05-24T06:52:55.064Z,102362.78
2023-05-24T06:54:27.037Z,102361.97
2023-05-24T06:55:58.989Z,102368.97
2023-05-24T06:57:31.053Z,102367.31
2023-05-24T06:59:02.917Z,102364.72
2023-05-24T07:00:34.753Z,102363.84
2023-05-24T07:02:06.870Z,102363.00
2023-05-24T07:03:38.757Z,102360.31
2023-05-24T07:05:13.649Z,102363.81
2023-05-24T07:06:46.223Z,102365.59
2023-05-24T07:08:18.136Z,102352.47
2023-05-24T07:09:50.000Z,102357.81
2023-05-24T07:11:21.945Z,102351.75
2023-05-24T07:12:53.766Z,102360.44
2023-05-24T07:14:27.578Z,102357.94
2023-05-24T07:15:59.418Z,102349.31
2023-05-24T07:17:31.849Z,102356.41
2023-05-24T07:19:05.064Z,102347.75
2023-05-24T07:20:37.057Z,102346.13
2023-05-24T07:22:08.914Z,102337.56
2023-05-24T07:23:40.789Z,102338.56
2023-05-24T07:25:13.008Z,102336.88
2023-05-24T07:26:44.825Z,102337.81
2023-05-24T07:28:20.352Z,102336.16
2023-05-24T07:29:52.246Z,102332.72
2023-05-24T07:31:24.169Z,102334.50
2023-05-24T07:32:56.129Z,102337.16
2023-05-24T07:34:30.325Z,102342.44
2023-05-24T07:36:03.014Z,102337.25
2023-05-24T07:37:34.914Z,102335.53
2023-05-24T07:39:07.161Z,102339.06
2023-05-24T07:40:39.684Z,102339.97
2023-05-24T07:42:11.670Z,102340.84
2023-05-24T07:43:43.544Z,102340.94
2023-05-24T07:45:15.347Z,102336.59
2023-05-24T07:46:47.277Z,102338.41
2023-05-24T07:48:22.088Z,102339.28
2023-05-24T07:49:53.960Z,102337.53
2023-05-24T07:51:26.829Z,102335.75
2023-05-24T07:52:58.700Z,102343.66
2023-05-24T07:54:30.695Z,102335.78
2023-05-24T07:56:02.598Z,102338.44
2023-05-24T07:57:34.490Z,102341.03
2023-05-24T07:59:07.111Z,102338.41
2023-05-24T08:00:39.135Z,102344.53
2023-05-24T08:02:11.972Z,102343.66
2023-05-24T08:03:44.118Z,102344.53
2023-05-24T08:05:17.011Z,102340.09
2023-05-24T08:06:48.916Z,102342.69
2023-05-24T08:08:20.771Z,102337.41
2023-05-24T08:09:53.096Z,102339.13
2023-05-24T08:11:24.976Z,102334.72
2023-05-24T08:12:57.083Z,102342.59
2023-05-24T08:14:28.934Z,102342.59
2023-05-24T08:16:00.818Z,102340.88
2023-05-24T08:17:32.781Z,102333.84
2023-05-24T08:19:05.901Z,102328.59
2023-05-24T08:20:37.983Z,102328.59
2023-05-24T08:22:09.801Z,102328.63
2023-05-24T08:23:41.682Z,102332.16
2023-05-24T08:25:13.496Z,102326.00
2023-05-24T08:26:45.606Z,102327.78
2023-05-24T08:28:17.459Z,102327.78
2023-05-24T08:29:49.394Z,102326.06
2023-05-24T08:31:22.302Z,102320.81
2023-05-24T08:32:54.770Z,102332.22
2023-05-24T08:34:27.030Z,102332.22
2023-05-24T08:35:58.897Z,102324.34
2023-05-24T08:37:32.263Z,102326.97
2023-05-24T08:39:05.246Z,102319.97
2023-05-24T08:40:37.147Z,102331.38
2023-05-24T08:42:10.178Z,102329.63
2023-05-24T08:43:42.923Z,102324.34
2023-05-24T08:45:15.287Z,102330.50
2023-05-24T08:46:47.347Z,102337.50
2023-05-24T08:48:19.446Z,102331.38
2023-05-24T08:49:52.208Z,102326.09
2023-05-24T08:51:24.188Z,102330.50
2023-05-24T08:52:56.212Z,102332.25
2023-05-24T08:54:28.084Z,102333.13
2023-05-24T08:55:59.933Z,102333.13
2023-05-24T08:57:32.856Z,102329.63
2023-05-24T08:59:04.731Z,102324.38
2023-05-24T09:00:36.722Z,102317.34
2023-05-24T09:02:11.854Z,102319.97
2023-05-24T09:03:44.225Z,102311.22
2023-05-24T09:05:17.421Z,102314.69
2023-05-24T09:06:49.428Z,102310.28
2023-05-24T09:08:21.365Z,102314.69
2023-05-24T09:10:01.431Z,102313.84
2023-05-24T09:11:33.692Z,102313.84
2023-05-24T09:13:05.737Z,102312.94
2023-05-24T09:14:37.655Z,102305.06
2023-05-24T09:16:09.607Z,102315.59
2023-05-24T09:17:41.657Z,102305.91
2023-05-24T09:19:14.397Z,102305.00
2023-05-24T09:20:46.847Z,102304.06
2023-05-24T09:22:23.807Z,102304.00
2023-05-24T09:23:55.856Z,102305.66
2023-05-24T09:25:28.379Z,102303.84
2023-05-24T09:27:05.991Z,102297.69
2023-05-24T09:28:38.185Z,102297.78
2023-05-24T09:30:10.683Z,102294.25
2023-05-24T09:31:43.086Z,102294.25
2023-05-24T09:33:32.554Z,102297.78
2023-05-24T09:35:08.495Z,102291.59
2023-05-24T09:36:43.250Z,102295.13
2023-05-24T09:38:23.649Z,102296.03
2023-05-24T09:39:55.869Z,102295.94
2023-05-24T09:41:27.781Z,102290.59
2023-05-24T09:43:02.992Z,102294.06
2023-05-24T09:44:34.861Z,102292.19
2023-05-24T09:46:06.695Z,102287.56
2023-05-24T09:47:41.909Z,102285.78
2023-05-24T09:49:13.803Z,102297.19
2023-05-24T09:50:47.789Z,102292.78
2023-05-24T09:52:19.642Z,102293.56
2023-05-24T09:53:54.605Z,102288.25
2023-05-24T09:55:26.786Z,102292.66
2023-05-24T09:57:05.271Z,102279.16
2023-05-24T09:58:37.296Z,102277.84
2023-05-24T10:00:16.818Z,102273.09
2023-05-24T10:01:54.158Z,102264.59
2023-05-24T10:03:26.601Z,102266.94
2023-05-24T10:05:01.792Z,102273.94
2023-05-24T10:06:37.341Z,102267.13
2023-05-24T10:08:12.243Z,102264.88
2023-05-24T10:09:44.256Z,102276.34
2023-05-24T10:11:16.238Z,102268.44
2023-05-24T10:12:48.252Z,102272.13
2023-05-24T10:14:20.175Z,102275.91
2023-05-24T10:15:52.095Z,102275.94
2023-05-24T10:17:24.539Z,102275.19
2023-05-24T10:18:57.052Z,102274.50
2023-05-24T10:20:30.589Z,102279.03
2023-05-24T10:22:04.624Z,102284.44
2023-05-24T10:23:37.156Z,102282.88
2023-05-24T10:25:11.019Z,102280.47
2023-05-24T10:26:43.203Z,102277.03
2023-05-24T10:28:15.487Z,102291.22
2023-05-24T10:29:47.368Z,102292.06
2023-05-24T10:31:48.622Z,102293.81
2023-05-24T10:33:21.414Z,102284.13
2023-05-24T10:34:54.412Z,102277.00
2023-05-24T10:36:29.169Z,102284.88
2023-05-24T10:38:01.269Z,102279.53
2023-05-24T10:39:33.443Z,102285.63
2023-05-24T10:41:05.560Z,102282.91
2023-05-24T10:42:37.434Z,102287.22
2023-05-24T10:44:13.523Z,102280.94
2023-05-24T10:45:48.979Z,102280.94
2023-05-24T10:47:21.054Z,102285.25
2023-05-24T10:48:59.536Z,102280.84
2023-05-24T10:50:31.434Z,102285.16
2023-05-24T10:52:07.452Z,102281.69
2023-05-24T10:53:39.690Z,102271.16
2023-05-24T10:55:12.023Z,102283.47
2023-05-24T10:56:50.628Z,102279.97
2023-05-24T10:58:23.529Z,102279.97
2023-05-24T10:59:55.352Z,102279.97
2023-05-24T11:01:28.301Z,102267.53
2023-05-24T11:03:04.494Z,102269.25
2023-05-24T11:04:43.710Z,102265.63
2023-05-24T11:06:15.612Z,102259.38
2023-05-24T11:07:48.647Z,102269.00
2023-05-24T11:09:20.538Z,102264.53
2023-05-24T11:12:46.270Z,102264.63
2023-05-24T11:14:18.832Z,102266.44
2023-05-24T11:15:51.469Z,102263.94
2023-05-24T11:17:23.759Z,102265.81
2023-05-24T11:18:55.886Z,102264.06
2023-05-24T11:20:27.714Z,102265.00
2023-05-24T11:22:00.009Z,102254.38
2023-05-24T11:23:32.051Z,102253.34
2023-05-24T11:25:06.488Z,102252.44
2023-05-24T11:26:38.362Z,102264.72
2023-05-24T11:28:13.635Z,102256.47
2023-05-24T11:29:46.004Z,102250.97
2023-05-24T11:31:17.872Z,102252.53
2023-05-24T11:32:50.030Z,102253.28
2023-05-24T11:34:22.230Z,102244.44
2023-05-24T11:35:54.758Z,102239.75
2023-05-24T11:37:38.547Z,102240.50
2023-05-24T11:39:18.305Z,102236.91
2023-05-24T11:40:50.436Z,102240.44
2023-05-24T11:42:23.407Z,102253.97
2023-05-24T11:43:55.414Z,102241.66
2023-05-24T11:45:29.037Z,102243.53
2023-05-24T11:47:04.903Z,102239.31
2023-05-24T11:48:36.835Z,102236.63
2023-05-24T11:50:08.897Z,102243.00
2023-05-24T11:51:40.915Z,102244.94
2023-05-24T11:53:13.163Z,102240.50
2023-05-24T11:54:45.258Z,102249.41
2023-05-24T11:56:17.090Z,102243.28
2023-05-24T11:57:50.091Z,102245.94
2023-05-24T11:59:23.478Z,102239.72
2023-05-24T12:00:55.330Z,102247.56
2023-05-24T12:02:27.201Z,102237.63
2023-05-24T12:03:59.219Z,102243.66
2023-05-24T12:05:32.172Z,102242.75
2023-05-24T12:07:04.071Z,102239.91
2023-05-24T12:08:36.031Z,102239.75
2023-05-24T12:10:08.734Z,102226.41
2023-05-24T12:11:41.261Z,102230.59
2023-05-24T12:13:25.815Z,102224.56
2023-05-24T12:14:57.852Z,102237.16
2023-05-24T12:16:32.491Z,102228.22
2023-05-24T12:18:04.499Z,102230.59
2023-05-24T12:19:37.134Z,102225.00
2023-05-24T12:21:10.308Z,102228.06
2023-05-24T12:22:52.093Z,102225.91
2023-05-24T12:24:24.418Z,102221.84
2023-05-24T12:26:00.410Z,102228.53
2023-05-24T12:27:34.244Z,102221.78
2023-05-24T12:29:06.332Z,102204.91
2023-05-24T12:30:38.385Z,102207.72
2023-05-24T12:32:14.030Z,102216.50
2023-05-24T12:33:47.551Z,102215.03
2023-05-24T12:35:19.635Z,102220.03
2023-05-24T12:36:51.574Z,102220.22
2023-05-24T12:38:25.898Z,102215.25
2023-05-24T12:39:57.777Z,102218.94
2023-05-24T12:41:30.616Z,102215.47
2023-05-24T12:43:02.894Z,102216.53
2023-05-24T12:44:38.818Z,102218.44
2023-05-24T12:46:10.702Z,102216.88
2023-05-24T12:47:42.626Z,102212.59
2023-05-24T12:49:14.510Z,102218.06
2023-05-24T12:50:46.384Z,102217.25
2023-05-24T12:52:18.216Z,102208.53
2023-05-24T12:53:50.081Z,102219.38
2023-05-24T12:55:28.494Z,102221.34
2023-05-24T12:57:00.727Z,102218.78
2023-05-24T12:58:32.774Z,102223.31
2023-05-24T13:00:04.890Z,102218.13
2023-05-24T13:01:36.933Z,102213.03
2023-05-24T13:03:09.254Z,102221.03
2023-05-24T13:04:41.212Z,102227.19
2023-05-24T13:06:13.516Z,102221.03
2023-05-24T13:07:45.643Z,102222.03
2023-05-24T13:09:19.406Z,102224.69
2023-05-24T13:10:51.429Z,102226.44
2023-05-24T13:12:23.559Z,102230.88
2023-05-24T13:13:55.498Z,102232.88
2023-05-24T13:15:27.718Z,102236.50
2023-05-24T13:16:59.934Z,102232.13
2023-05-24T13:18:32.256Z,102227.69
2023-05-24T13:20:12.127Z,102232.09
2023-05-24T13:21:44.352Z,102228.56
2023-05-24T13:23:16.233Z,102229.50
2023-05-24T13:24:48.158Z,102239.94
2023-05-24T13:26:20.053Z,102233.78
2023-05-24T13:27:52.101Z,102240.88
2023-05-24T13:29:34.272Z,102239.13
2023-05-24T13:31:09.603Z,102245.31
2023-05-24T13:32:41.566Z,102240.78
2023-05-24T13:34:13.648Z,102241.72
2023-05-24T13:35:45.753Z,102236.34
2023-05-24T13:37:17.748Z,102240.69
2023-05-24T13:38:54.307Z,102227.34
2023-05-24T13:40:34.307Z,102228.22
2023-05-24T13:42:06.897Z,102230.03
2023-05-24T13:43:38.890Z,102229.25
2023-05-24T13:45:11.905Z,102220.44
2023-05-24T13:46:43.954Z,102226.63
2023-05-24T13:48:15.906Z,102230.16
2023-05-24T13:49:48.217Z,102216.94
2023-05-24T13:51:20.186Z,102217.69
2023-05-24T13:52:51.993Z,102214.09
2023-05-24T13:54:23.837Z,102217.53
2023-05-24T13:55:55.666Z,102213.84
2023-05-24T13:57:39.408Z,102217.19
2023-05-24T13:59:19.420Z,102217.72
2023-05-24T14:00:51.380Z,102218.19
2023-05-24T14:02:23.255Z,102222.13
2023-05-24T14:03:55.173Z,102212.03
2023-05-24T14:05:28.764Z,102210.16
2023-05-24T14:07:00.652Z,102218.03
2023-05-24T14:08:32.472Z,102216.19
2023-05-24T14:10:04.413Z,102213.84
2023-05-24T14:11:36.474Z,102218.94
2023-05-24T14:13:20.673Z,102213.44
2023-05-24T14:15:00.520Z,102215.47
2023-05-24T14:16:32.516Z,102217.28
2023-05-24T14:18:08.782Z,102215.56
2023-05-24T14:19:40.960Z,102215.53
2023-05-24T14:21:12.867Z,102218.13
2023-05-24T14:22:44.683Z,102221.63
2023-05-24T14:24:16.719Z,102216.88
2023-05-24T14:25:48.576Z,102211.53
2023-05-24T14:27:20.503Z,102216.78
2023-05-24T14:28:55.263Z,102219.28
2023-05-24T14:30:28.418Z,102218.41
2023-05-24T14:32:00.305Z,102216.44
2023-05-24T14:33:32.288Z,102213.66
2023-05-24T14:35:04.493Z,102206.97
2023-05-24T14:36:37.643Z,102203.16
2023-05-24T14:38:10.866Z,102214.63
2023-05-24T14:39:42.740Z,102203.16
2023-05-24T14:41:15.701Z,102206.44
2023-05-24T14:42:47.538Z,102210.56
2023-05-24T14:44:19.688Z,102199.72
2023-05-24T14:45:51.645Z,102203.78
2023-05-24T14:47:23.573Z,102209.25
2023-05-24T14:48:55.396Z,102204.91
2023-05-24T14:50:27.238Z,102209.31
2023-05-24T14:51:59.288Z,102202.22
2023-05-24T14:53:31.079Z,102206.84
2023-05-24T14:55:03.368Z,102200.00
2023-05-24T14:56:35.246Z,102210.69
2023-05-24T14:58:09.519Z,102207.53
2023-05-24T14:59:41.319Z,102201.56
2023-05-24T15:01:13.145Z,102205.69
2023-05-24T15:02:45.113Z,102198.41
2023-05-24T15:04:16.970Z,102212.84
2023-05-24T15:05:49.131Z,102201.41
2023-05-24T15:07:21.799Z,102204.88
2023-05-24T15:08:53.783Z,102203.56
2023-05-24T15:10:25.739Z,102205.41
2023-05-24T15:11:57.669Z,102203.00
2023-05-24T15:13:29.519Z,102205.81
2023-05-24T15:15:01.668Z,102212.31
2023-05-24T15:16:33.646Z,102213.19
2023-05-24T15:18:05.871Z,102214.00
2023-05-24T15:19:38.085Z,102213.16
2023-05-24T15:21:09.959Z,102211.53
2023-05-24T15:22:41.722Z,102202.75
2023-05-24T15:24:14.984Z,102214.44
2023-05-24T15:25:46.883Z,102205.50
2023-05-24T15:27:18.870Z,102208.13
2023-05-24T15:28:50.715Z,102214.28
2023-05-24T15:30:24.349Z,102205.41
2023-05-24T15:31:58.914Z,102203.94
2023-05-24T15:33:31.011Z,102198.75
2023-05-24T15:35:03.061Z,102210.22
2023-05-24T15:36:34.871Z,102204.13
2023-05-24T15:38:06.734Z,102205.06
2023-05-24T15:39:38.614Z,102196.31
2023-05-24T15:41:10.634Z,102202.38
2023-05-24T15:42:42.575Z,102200.66
2023-05-24T15:44:14.471Z,102202.47
2023-05-24T15:45:46.744Z,102197.13
2023-05-24T15:47:21.195Z,102203.34
2023-05-24T15:48:54.151Z,102197.16
2023-05-24T15:50:42.618Z,102200.72
2023-05-24T15:52:17.823Z,102200.84
2023-05-24T15:53:49.697Z,102199.00
2023-05-24T15:55:21.610Z,102197.06
2023-05-24T15:56:53.467Z,102191.50
2023-05-24T15:58:25.401Z,102196.41
2023-05-24T15:59:57.250Z,102189.22
2023-05-24T16:01:29.290Z,102196.97
2023-05-24T16:03:01.552Z,102186.38
2023-05-24T16:04:33.420Z,102185.38
2023-05-24T16:06:05.674Z,102185.25
2023-05-24T16:07:37.541Z,102183.41
2023-05-24T16:09:09.456Z,102177.84
2023-05-24T16:10:41.532Z,102176.75
2023-05-24T16:12:13.577Z,102173.41
2023-05-24T16:13:45.409Z,102176.91
2023-05-24T16:15:17.253Z,102177.91
2023-05-24T16:16:49.214Z,102179.06
2023-05-24T16:18:23.602Z,102182.84
2023-05-24T16:19:55.932Z,102184.78
2023-05-24T16:21:29.098Z,102180.53
2023-05-24T16:23:01.035Z,102186.72
2023-05-24T16:24:32.972Z,102177.44
2023-05-24T16:26:04.825Z,102177.56
2023-05-24T16:27:36.689Z,102175.09
2023-05-24T16:29:10.721Z,102163.66
2023-05-24T16:30:42.752Z,102171.69
2023-05-24T16:32:18.273Z,102169.09
2023-05-24T16:33:50.146Z,102171.00
2023-05-24T16:35:22.070Z,102166.81
2023-05-24T16:36:54.093Z,102162.47
2023-05-24T16:38:26.290Z,102162.44
2023-05-24T16:39:58.164Z,102165.00
2023-05-24T16:41:35.440Z,102166.69
2023-05-24T16:43:10.080Z,102160.66
2023-05-24T16:44:41.934Z,102159.75
2023-05-24T16:46:13.791Z,102151.81
2023-05-24T16:47:45.740Z,102151.78
2023-05-24T16:49:17.646Z,102155.28
2023-05-24T16:50:50.585Z,102149.06
2023-05-24T16:52:22.495Z,102146.13
2023-05-24T16:53:54.382Z,102150.41
2023-05-24T16:55:26.196Z,102148.59
2023-05-24T16:56:58.096Z,102146.84
2023-05-24T16:58:31.154Z,102150.56
2023-05-24T17:00:04.301Z,102145.25
2023-05-24T17:01:36.128Z,102152.38
2023-05-24T17:03:08.576Z,102156.94
2023-05-24T17:04:40.498Z,102148.97
2023-05-24T17:06:12.318Z,102155.91
2023-05-24T17:07:45.652Z,102147.97
2023-05-24T17:09:17.506Z,102156.84
2023-05-24T17:10:56.014Z,102156.16
2023-05-24T17:12:29.847Z,102158.09
2023-05-24T17:14:01.675Z,102156.28
2023-05-24T17:15:33.529Z,102153.66
2023-05-24T17:17:07.062Z,102156.16
2023-05-24T17:18:39.785Z,102158.88
2023-05-24T17:20:12.840Z,102163.50
2023-05-24T17:21:44.814Z,102166.06
2023-05-24T17:23:17.489Z,102167.91
2023-05-24T17:24:50.009Z,102171.47
2023-05-24T17:26:22.747Z,102169.09
2023-05-24T17:27:54.663Z,102177.13
2023-05-24T17:29:26.997Z,102176.38
2023-05-24T17:30:59.951Z,102176.31
2023-05-24T17:32:31.774Z,102171.78
2023-05-24T17:34:03.722Z,102173.63
2023-05-24T17:35:35.622Z,102173.84
2023-05-24T17:37:07.469Z,102175.59
2023-05-24T17:38:39.770Z,102183.53
2023-05-24T17:40:11.859Z,102173.91
2023-05-24T17:41:44.839Z,102173.03
2023-05-24T17:43:16.681Z,102181.88